sensor_id;sensor_type;location;lat;lon;timestamp;P1;durP1;ratioP1;P2;durP2;ratioP2
76731;SDS011;65656;51.130;13.658;2023-08-30T00:03:47;18.13;;;16.83;;
76731;SDS011;65656;51.130;13.658;2023-08-30T00:07:50;14.13;;;13.27;;
76731;SDS011;65656;51.130;13.658;2023-08-30T00:11:52;16.80;;;15.90;;
76731;SDS011;65656;51.130;13.658;2023-08-30T00:15:53;17.58;;;16.40;;
76731;SDS011;65656;51.130;13.658;2023-08-30T00:19:55;14.65;;;13.63;;
76731;SDS011;65656;51.130;13.658;2023-08-30T00:23:58;16.58;;;15.55;;
76731;SDS011;65656;51.130;13.658;2023-08-30T00:27:59;15.50;;;14.20;;
76731;SDS011;65656;51.130;13.658;2023-08-30T00:32:01;15.40;;;14.05;;
76731;SDS011;65656;51.130;13.658;2023-08-30T00:36:02;18.45;;;17.25;;
76731;SDS011;65656;51.130;13.658;2023-08-30T00:40:07;19.58;;;18.45;;
76731;SDS011;65656;51.130;13.658;2023-08-30T00:44:09;17.92;;;16.73;;
76731;SDS011;65656;51.130;13.658;2023-08-30T00:48:11;19.85;;;18.45;;
76731;SDS011;65656;51.130;13.658;2023-08-30T00:52:13;17.13;;;15.93;;
76731;SDS011;65656;51.130;13.658;2023-08-30T00:56:16;20.30;;;19.08;;
76731;SDS011;65656;51.130;13.658;2023-08-30T01:00:19;15.82;;;14.77;;
76731;SDS011;65656;51.130;13.658;2023-08-30T01:04:20;23.38;;;21.88;;
76731;SDS011;65656;51.130;13.658;2023-08-30T01:08:22;15.77;;;14.65;;
76731;SDS011;65656;51.130;13.658;2023-08-30T01:12:27;17.25;;;15.85;;
76731;SDS011;65656;51.130;13.658;2023-08-30T01:16:34;7.45;;;6.72;;
76731;SDS011;65656;51.130;13.658;2023-08-30T01:20:37;17.98;;;16.88;;
76731;SDS011;65656;51.130;13.658;2023-08-30T01:24:42;17.77;;;16.38;;
76731;SDS011;65656;51.130;13.658;2023-08-30T01:28:51;9.85;;;8.07;;
76731;SDS011;65656;51.130;13.658;2023-08-30T01:32:54;10.73;;;9.52;;
76731;SDS011;65656;51.130;13.658;2023-08-30T01:36:56;9.88;;;8.73;;
76731;SDS011;65656;51.130;13.658;2023-08-30T01:40:59;19.85;;;18.52;;
76731;SDS011;65656;51.130;13.658;2023-08-30T01:45:03;20.33;;;19.02;;
76731;SDS011;65656;51.130;13.658;2023-08-30T01:49:08;16.42;;;15.02;;
76731;SDS011;65656;51.130;13.658;2023-08-30T01:53:11;22.25;;;20.83;;
76731;SDS011;65656;51.130;13.658;2023-08-30T01:57:14;15.18;;;14.05;;
76731;SDS011;65656;51.130;13.658;2023-08-30T02:01:17;18.77;;;17.38;;
76731;SDS011;65656;51.130;13.658;2023-08-30T02:05:18;20.95;;;19.45;;
76731;SDS011;65656;51.130;13.658;2023-08-30T02:09:21;21.70;;;20.30;;
76731;SDS011;65656;51.130;13.658;2023-08-30T02:13:28;10.88;;;9.88;;
76731;SDS011;65656;51.130;13.658;2023-08-30T02:17:32;18.58;;;17.20;;
76731;SDS011;65656;51.130;13.658;2023-08-30T02:21:36;19.67;;;18.20;;
76731;SDS011;65656;51.130;13.658;2023-08-30T02:25:37;20.08;;;18.52;;
76731;SDS011;65656;51.130;13.658;2023-08-30T02:29:39;16.48;;;15.30;;
76731;SDS011;65656;51.130;13.658;2023-08-30T02:33:42;16.77;;;15.57;;
76731;SDS011;65656;51.130;13.658;2023-08-30T02:37:43;18.63;;;17.23;;
76731;SDS011;65656;51.130;13.658;2023-08-30T02:41:45;17.83;;;16.52;;
76731;SDS011;65656;51.130;13.658;2023-08-30T02:45:46;18.95;;;17.55;;
76731;SDS011;65656;51.130;13.658;2023-08-30T02:49:49;18.42;;;17.08;;
76731;SDS011;65656;51.130;13.658;2023-08-30T02:53:51;17.77;;;16.58;;
76731;SDS011;65656;51.130;13.658;2023-08-30T02:57:53;16.95;;;15.45;;
76731;SDS011;65656;51.130;13.658;2023-08-30T03:01:54;16.50;;;14.90;;
76731;SDS011;65656;51.130;13.658;2023-08-30T03:05:57;17.98;;;16.55;;
76731;SDS011;65656;51.130;13.658;2023-08-30T03:09:59;21.20;;;19.65;;
76731;SDS011;65656;51.130;13.658;2023-08-30T03:14:01;18.02;;;16.17;;
76731;SDS011;65656;51.130;13.658;2023-08-30T03:18:02;16.33;;;15.18;;
76731;SDS011;65656;51.130;13.658;2023-08-30T03:22:06;9.60;;;8.60;;
76731;SDS011;65656;51.130;13.658;2023-08-30T03:26:07;22.42;;;20.83;;
76731;SDS011;65656;51.130;13.658;2023-08-30T03:30:10;12.52;;;11.45;;
76731;SDS011;65656;51.130;13.658;2023-08-30T03:34:12;18.73;;;17.13;;
76731;SDS011;65656;51.130;13.658;2023-08-30T03:38:15;19.08;;;17.67;;
76731;SDS011;65656;51.130;13.658;2023-08-30T03:42:16;8.82;;;7.60;;
76731;SDS011;65656;51.130;13.658;2023-08-30T03:46:18;13.02;;;11.93;;
76731;SDS011;65656;51.130;13.658;2023-08-30T03:50:19;13.48;;;12.27;;
76731;SDS011;65656;51.130;13.658;2023-08-30T03:54:22;15.93;;;14.70;;
76731;SDS011;65656;51.130;13.658;2023-08-30T03:58:24;20.50;;;18.83;;
76731;SDS011;65656;51.130;13.658;2023-08-30T04:02:26;17.42;;;16.02;;
76731;SDS011;65656;51.130;13.658;2023-08-30T04:06:27;19.25;;;17.95;;
76731;SDS011;65656;51.130;13.658;2023-08-30T04:10:33;14.95;;;13.65;;
76731;SDS011;65656;51.130;13.658;2023-08-30T04:14:35;15.73;;;14.30;;
76731;SDS011;65656;51.130;13.658;2023-08-30T04:18:37;18.20;;;16.88;;
76731;SDS011;65656;51.130;13.658;2023-08-30T04:22:39;8.57;;;7.15;;
76731;SDS011;65656;51.130;13.658;2023-08-30T04:26:41;16.60;;;15.45;;
76731;SDS011;65656;51.130;13.658;2023-08-30T04:30:43;18.45;;;17.17;;
76731;SDS011;65656;51.130;13.658;2023-08-30T04:34:45;17.27;;;16.08;;
76731;SDS011;65656;51.130;13.658;2023-08-30T04:38:46;18.98;;;17.70;;
76731;SDS011;65656;51.130;13.658;2023-08-30T04:43:03;17.27;;;16.13;;
76731;SDS011;65656;51.130;13.658;2023-08-30T04:47:05;20.33;;;18.73;;
76731;SDS011;65656;51.130;13.658;2023-08-30T04:51:06;14.90;;;13.70;;
76731;SDS011;65656;51.130;13.658;2023-08-30T04:55:08;12.65;;;11.65;;
76731;SDS011;65656;51.130;13.658;2023-08-30T04:59:12;15.32;;;14.18;;
76731;SDS011;65656;51.130;13.658;2023-08-30T05:03:13;18.70;;;17.55;;
76731;SDS011;65656;51.130;13.658;2023-08-30T05:07:15;22.02;;;20.73;;
76731;SDS011;65656;51.130;13.658;2023-08-30T05:11:17;18.00;;;16.55;;
76731;SDS011;65656;51.130;13.658;2023-08-30T05:15:20;14.63;;;13.60;;
76731;SDS011;65656;51.130;13.658;2023-08-30T05:19:21;12.85;;;8.27;;
76731;SDS011;65656;51.130;13.658;2023-08-30T05:23:23;15.85;;;14.65;;
76731;SDS011;65656;51.130;13.658;2023-08-30T05:27:25;13.93;;;12.80;;
76731;SDS011;65656;51.130;13.658;2023-08-30T05:31:28;17.42;;;16.15;;
76731;SDS011;65656;51.130;13.658;2023-08-30T05:35:29;14.15;;;13.05;;
76731;SDS011;65656;51.130;13.658;2023-08-30T05:39:31;18.23;;;17.02;;
76731;SDS011;65656;51.130;13.658;2023-08-30T05:43:33;21.40;;;20.13;;
76731;SDS011;65656;51.130;13.658;2023-08-30T05:47:37;15.55;;;14.35;;
76731;SDS011;65656;51.130;13.658;2023-08-30T05:51:39;17.42;;;16.33;;
76731;SDS011;65656;51.130;13.658;2023-08-30T05:55:41;16.10;;;14.60;;
76731;SDS011;65656;51.130;13.658;2023-08-30T05:59:42;8.88;;;7.13;;
76731;SDS011;65656;51.130;13.658;2023-08-30T06:03:45;13.23;;;12.35;;
76731;SDS011;65656;51.130;13.658;2023-08-30T06:07:47;13.00;;;12.10;;
76731;SDS011;65656;51.130;13.658;2023-08-30T06:11:48;14.00;;;13.00;;
76731;SDS011;65656;51.130;13.658;2023-08-30T06:15:50;22.95;;;21.63;;
76731;SDS011;65656;51.130;13.658;2023-08-30T06:19:54;17.33;;;16.02;;
76731;SDS011;65656;51.130;13.658;2023-08-30T06:23:55;12.80;;;11.80;;
76731;SDS011;65656;51.130;13.658;2023-08-30T06:27:57;16.15;;;14.85;;
76731;SDS011;65656;51.130;13.658;2023-08-30T06:32:00;17.92;;;16.52;;
76731;SDS011;65656;51.130;13.658;2023-08-30T06:36:03;16.73;;;15.52;;
76731;SDS011;65656;51.130;13.658;2023-08-30T06:40:05;17.90;;;16.73;;
76731;SDS011;65656;51.130;13.658;2023-08-30T06:44:08;15.88;;;14.77;;
76731;SDS011;65656;51.130;13.658;2023-08-30T06:48:09;17.45;;;16.20;;
76731;SDS011;65656;51.130;13.658;2023-08-30T06:52:13;24.05;;;22.38;;
76731;SDS011;65656;51.130;13.658;2023-08-30T06:56:15;15.82;;;14.68;;
76731;SDS011;65656;51.130;13.658;2023-08-30T07:00:17;20.20;;;18.73;;
76731;SDS011;65656;51.130;13.658;2023-08-30T07:04:19;19.00;;;17.75;;
76731;SDS011;65656;51.130;13.658;2023-08-30T07:08:22;20.40;;;18.90;;
76731;SDS011;65656;51.130;13.658;2023-08-30T07:12:24;16.10;;;14.90;;
76731;SDS011;65656;51.130;13.658;2023-08-30T07:16:26;20.05;;;18.50;;
76731;SDS011;65656;51.130;13.658;2023-08-30T07:20:28;21.58;;;20.02;;
76731;SDS011;65656;51.130;13.658;2023-08-30T07:24:31;16.05;;;14.65;;
76731;SDS011;65656;51.130;13.658;2023-08-30T07:28:33;17.55;;;16.33;;
76731;SDS011;65656;51.130;13.658;2023-08-30T07:32:34;17.25;;;15.93;;
76731;SDS011;65656;51.130;13.658;2023-08-30T07:36:36;20.35;;;19.10;;
76731;SDS011;65656;51.130;13.658;2023-08-30T07:40:49;17.02;;;15.73;;
76731;SDS011;65656;51.130;13.658;2023-08-30T07:44:51;17.73;;;16.33;;
76731;SDS011;65656;51.130;13.658;2023-08-30T07:48:52;15.20;;;14.00;;
76731;SDS011;65656;51.130;13.658;2023-08-30T07:52:54;17.88;;;16.35;;
76731;SDS011;65656;51.130;13.658;2023-08-30T07:56:57;18.17;;;16.98;;
76731;SDS011;65656;51.130;13.658;2023-08-30T08:00:58;20.02;;;18.88;;
76731;SDS011;65656;51.130;13.658;2023-08-30T08:05:00;19.63;;;18.38;;
76731;SDS011;65656;51.130;13.658;2023-08-30T08:09:02;16.25;;;15.15;;
76731;SDS011;65656;51.130;13.658;2023-08-30T08:13:05;15.88;;;14.80;;
76731;SDS011;65656;51.130;13.658;2023-08-30T08:17:07;15.45;;;14.45;;
76731;SDS011;65656;51.130;13.658;2023-08-30T08:21:09;14.98;;;14.02;;
76731;SDS011;65656;51.130;13.658;2023-08-30T08:25:11;17.30;;;16.05;;
76731;SDS011;65656;51.130;13.658;2023-08-30T08:29:14;18.70;;;17.58;;
76731;SDS011;65656;51.130;13.658;2023-08-30T08:33:15;13.95;;;13.05;;
76731;SDS011;65656;51.130;13.658;2023-08-30T08:37:17;17.70;;;16.33;;
76731;SDS011;65656;51.130;13.658;2023-08-30T08:41:19;14.95;;;14.02;;
76731;SDS011;65656;51.130;13.658;2023-08-30T08:45:22;16.42;;;15.13;;
76731;SDS011;65656;51.130;13.658;2023-08-30T08:49:24;14.13;;;13.02;;
76731;SDS011;65656;51.130;13.658;2023-08-30T08:53:26;11.85;;;10.95;;
76731;SDS011;65656;51.130;13.658;2023-08-30T08:57:29;10.55;;;9.65;;
76731;SDS011;65656;51.130;13.658;2023-08-30T09:01:32;16.98;;;15.88;;
76731;SDS011;65656;51.130;13.658;2023-08-30T09:05:37;15.00;;;13.93;;
76731;SDS011;65656;51.130;13.658;2023-08-30T09:09:39;13.77;;;12.77;;
76731;SDS011;65656;51.130;13.658;2023-08-30T09:13:42;12.02;;;11.23;;
76731;SDS011;65656;51.130;13.658;2023-08-30T09:17:45;6.40;;;5.80;;
76731;SDS011;65656;51.130;13.658;2023-08-30T09:21:50;12.48;;;11.57;;
76731;SDS011;65656;51.130;13.658;2023-08-30T09:25:54;11.77;;;10.98;;
76731;SDS011;65656;51.130;13.658;2023-08-30T09:29:57;10.65;;;9.52;;
76731;SDS011;65656;51.130;13.658;2023-08-30T09:34:00;12.30;;;11.40;;
76731;SDS011;65656;51.130;13.658;2023-08-30T09:38:02;11.48;;;10.70;;
76731;SDS011;65656;51.130;13.658;2023-08-30T09:42:04;10.80;;;10.00;;
76731;SDS011;65656;51.130;13.658;2023-08-30T09:46:06;10.65;;;9.95;;
76731;SDS011;65656;51.130;13.658;2023-08-30T09:50:09;4.95;;;3.95;;
76731;SDS011;65656;51.130;13.658;2023-08-30T09:54:13;8.50;;;6.82;;
76731;SDS011;65656;51.130;13.658;2023-08-30T09:58:36;8.57;;;7.97;;
76731;SDS011;65656;51.130;13.658;2023-08-30T10:02:39;14.95;;;14.07;;
76731;SDS011;65656;51.130;13.658;2023-08-30T10:07:04;4.82;;;3.67;;
76731;SDS011;65656;51.130;13.658;2023-08-30T10:11:06;8.05;;;7.45;;
76731;SDS011;65656;51.130;13.658;2023-08-30T10:15:08;7.68;;;7.18;;
76731;SDS011;65656;51.130;13.658;2023-08-30T10:19:10;6.43;;;5.40;;
76731;SDS011;65656;51.130;13.658;2023-08-30T10:23:16;8.95;;;8.20;;
76731;SDS011;65656;51.130;13.658;2023-08-30T10:27:19;6.63;;;3.25;;
76731;SDS011;65656;51.130;13.658;2023-08-30T10:31:23;9.13;;;8.52;;
76731;SDS011;65656;51.130;13.658;2023-08-30T10:35:28;8.85;;;8.05;;
76731;SDS011;65656;51.130;13.658;2023-08-30T10:39:35;8.40;;;7.82;;
76731;SDS011;65656;51.130;13.658;2023-08-30T10:43:37;7.03;;;6.50;;
76731;SDS011;65656;51.130;13.658;2023-08-30T10:47:38;12.13;;;11.32;;
76731;SDS011;65656;51.130;13.658;2023-08-30T10:51:41;10.40;;;9.70;;
76731;SDS011;65656;51.130;13.658;2023-08-30T11:00:11;13.90;;;12.98;;
76731;SDS011;65656;51.130;13.658;2023-08-30T11:04:20;9.77;;;9.05;;
76731;SDS011;65656;51.130;13.658;2023-08-30T11:08:21;12.90;;;12.20;;
76731;SDS011;65656;51.130;13.658;2023-08-30T11:12:24;9.75;;;9.10;;
76731;SDS011;65656;51.130;13.658;2023-08-30T11:16:26;4.57;;;3.83;;
76731;SDS011;65656;51.130;13.658;2023-08-30T11:20:28;9.20;;;8.60;;
76731;SDS011;65656;51.130;13.658;2023-08-30T11:24:29;8.88;;;8.20;;
76731;SDS011;65656;51.130;13.658;2023-08-30T11:28:32;7.90;;;7.22;;
76731;SDS011;65656;51.130;13.658;2023-08-30T11:32:34;8.95;;;8.15;;
76731;SDS011;65656;51.130;13.658;2023-08-30T11:36:36;6.82;;;6.43;;
76731;SDS011;65656;51.130;13.658;2023-08-30T11:40:39;6.40;;;5.90;;
76731;SDS011;65656;51.130;13.658;2023-08-30T11:44:42;5.78;;;5.38;;
76731;SDS011;65656;51.130;13.658;2023-08-30T11:48:45;9.25;;;8.57;;
76731;SDS011;65656;51.130;13.658;2023-08-30T11:52:48;7.63;;;7.00;;
76731;SDS011;65656;51.130;13.658;2023-08-30T11:56:50;5.35;;;4.93;;
76731;SDS011;65656;51.130;13.658;2023-08-30T12:00:53;9.70;;;8.93;;
76731;SDS011;65656;51.130;13.658;2023-08-30T12:04:55;10.93;;;10.27;;
76731;SDS011;65656;51.130;13.658;2023-08-30T12:08:57;8.32;;;7.80;;
76731;SDS011;65656;51.130;13.658;2023-08-30T12:12:59;16.55;;;15.70;;
76731;SDS011;65656;51.130;13.658;2023-08-30T12:17:02;9.90;;;9.35;;
76731;SDS011;65656;51.130;13.658;2023-08-30T12:21:04;4.32;;;3.00;;
76731;SDS011;65656;51.130;13.658;2023-08-30T12:25:15;9.70;;;9.18;;
76731;SDS011;65656;51.130;13.658;2023-08-30T12:29:17;9.13;;;8.60;;
76731;SDS011;65656;51.130;13.658;2023-08-30T12:33:20;5.18;;;4.78;;
76731;SDS011;65656;51.130;13.658;2023-08-30T12:37:23;6.75;;;6.35;;
76731;SDS011;65656;51.130;13.658;2023-08-30T12:41:25;7.70;;;7.10;;
76731;SDS011;65656;51.130;13.658;2023-08-30T12:45:26;6.95;;;6.53;;
76731;SDS011;65656;51.130;13.658;2023-08-30T12:49:29;10.48;;;9.88;;
76731;SDS011;65656;51.130;13.658;2023-08-30T12:53:31;12.48;;;11.82;;
76731;SDS011;65656;51.130;13.658;2023-08-30T12:57:33;9.57;;;9.00;;
76731;SDS011;65656;51.130;13.658;2023-08-30T13:01:34;12.32;;;11.63;;
76731;SDS011;65656;51.130;13.658;2023-08-30T13:05:40;9.30;;;8.80;;
76731;SDS011;65656;51.130;13.658;2023-08-30T13:09:41;10.02;;;9.48;;
76731;SDS011;65656;51.130;13.658;2023-08-30T13:13:43;11.73;;;11.13;;
76731;SDS011;65656;51.130;13.658;2023-08-30T13:17:44;4.25;;;3.88;;
76731;SDS011;65656;51.130;13.658;2023-08-30T13:21:47;6.68;;;6.05;;
76731;SDS011;65656;51.130;13.658;2023-08-30T13:25:49;8.00;;;7.40;;
76731;SDS011;65656;51.130;13.658;2023-08-30T13:29:51;5.57;;;5.07;;
76731;SDS011;65656;51.130;13.658;2023-08-30T13:33:52;3.53;;;3.22;;
76731;SDS011;65656;51.130;13.658;2023-08-30T13:37:55;2.35;;;1.60;;
76731;SDS011;65656;51.130;13.658;2023-08-30T13:41:57;5.22;;;4.82;;
76731;SDS011;65656;51.130;13.658;2023-08-30T13:45:58;2.85;;;1.55;;
76731;SDS011;65656;51.130;13.658;2023-08-30T13:50:01;5.93;;;5.50;;
76731;SDS011;65656;51.130;13.658;2023-08-30T13:54:04;3.20;;;2.33;;
76731;SDS011;65656;51.130;13.658;2023-08-30T13:58:05;3.50;;;2.08;;
76731;SDS011;65656;51.130;13.658;2023-08-30T14:02:07;3.55;;;3.20;;
76731;SDS011;65656;51.130;13.658;2023-08-30T14:06:09;5.82;;;1.48;;
76731;SDS011;65656;51.130;13.658;2023-08-30T14:10:12;3.20;;;2.75;;
76731;SDS011;65656;51.130;13.658;2023-08-30T14:14:13;2.45;;;1.98;;
76731;SDS011;65656;51.130;13.658;2023-08-30T14:18:15;3.17;;;2.78;;
76731;SDS011;65656;51.130;13.658;2023-08-30T14:22:17;2.17;;;1.98;;
76731;SDS011;65656;51.130;13.658;2023-08-30T14:26:20;4.47;;;1.98;;
76731;SDS011;65656;51.130;13.658;2023-08-30T14:30:21;2.55;;;2.17;;
76731;SDS011;65656;51.130;13.658;2023-08-30T14:34:23;3.75;;;3.45;;
76731;SDS011;65656;51.130;13.658;2023-08-30T14:38:25;4.85;;;3.50;;
76731;SDS011;65656;51.130;13.658;2023-08-30T14:42:28;3.67;;;3.45;;
76731;SDS011;65656;51.130;13.658;2023-08-30T14:46:29;3.63;;;3.30;;
76731;SDS011;65656;51.130;13.658;2023-08-30T14:50:31;5.30;;;4.88;;
76731;SDS011;65656;51.130;13.658;2023-08-30T14:54:32;5.50;;;4.95;;
76731;SDS011;65656;51.130;13.658;2023-08-30T14:58:35;7.10;;;6.60;;
76731;SDS011;65656;51.130;13.658;2023-08-30T15:02:37;5.82;;;4.38;;
76731;SDS011;65656;51.130;13.658;2023-08-30T15:06:39;6.60;;;6.15;;
76731;SDS011;65656;51.130;13.658;2023-08-30T15:10:40;6.50;;;6.00;;
76731;SDS011;65656;51.130;13.658;2023-08-30T15:14:43;8.20;;;7.60;;
76731;SDS011;65656;51.130;13.658;2023-08-30T15:18:45;6.13;;;4.15;;
76731;SDS011;65656;51.130;13.658;2023-08-30T15:22:46;6.90;;;6.38;;
76731;SDS011;65656;51.130;13.658;2023-08-30T15:26:48;2.70;;;2.13;;
76731;SDS011;65656;51.130;13.658;2023-08-30T15:30:51;5.85;;;5.43;;
76731;SDS011;65656;51.130;13.658;2023-08-30T15:34:52;5.95;;;5.45;;
76731;SDS011;65656;51.130;13.658;2023-08-30T15:38:54;5.85;;;5.47;;
76731;SDS011;65656;51.130;13.658;2023-08-30T15:42:55;3.42;;;3.10;;
76731;SDS011;65656;51.130;13.658;2023-08-30T15:46:58;3.42;;;2.40;;
76731;SDS011;65656;51.130;13.658;2023-08-30T15:51:00;4.97;;;4.68;;
76731;SDS011;65656;51.130;13.658;2023-08-30T15:55:02;3.20;;;2.72;;
76731;SDS011;65656;51.130;13.658;2023-08-30T15:59:04;3.25;;;1.90;;
76731;SDS011;65656;51.130;13.658;2023-08-30T16:03:09;5.78;;;5.38;;
76731;SDS011;65656;51.130;13.658;2023-08-30T16:07:12;5.75;;;5.43;;
76731;SDS011;65656;51.130;13.658;2023-08-30T16:11:13;6.95;;;6.55;;
76731;SDS011;65656;51.130;13.658;2023-08-30T16:15:15;5.57;;;5.15;;
76731;SDS011;65656;51.130;13.658;2023-08-30T16:19:18;7.72;;;7.10;;
76731;SDS011;65656;51.130;13.658;2023-08-30T16:23:19;13.35;;;12.55;;
76731;SDS011;65656;51.130;13.658;2023-08-30T16:27:21;10.98;;;10.35;;
76731;SDS011;65656;51.130;13.658;2023-08-30T16:31:27;12.73;;;12.02;;
76731;SDS011;65656;51.130;13.658;2023-08-30T16:35:31;9.60;;;8.82;;
76731;SDS011;65656;51.130;13.658;2023-08-30T16:39:33;9.35;;;8.75;;
76731;SDS011;65656;51.130;13.658;2023-08-30T16:43:34;9.90;;;9.30;;
76731;SDS011;65656;51.130;13.658;2023-08-30T16:47:36;4.25;;;3.83;;
76731;SDS011;65656;51.130;13.658;2023-08-30T16:51:54;9.13;;;8.52;;
76731;SDS011;65656;51.130;13.658;2023-08-30T16:55:58;10.45;;;9.82;;
76731;SDS011;65656;51.130;13.658;2023-08-30T17:00:01;8.63;;;8.07;;
76731;SDS011;65656;51.130;13.658;2023-08-30T17:04:03;8.18;;;7.55;;
76731;SDS011;65656;51.130;13.658;2023-08-30T17:08:06;6.80;;;6.35;;
76731;SDS011;65656;51.130;13.658;2023-08-30T17:12:08;7.43;;;6.75;;
76731;SDS011;65656;51.130;13.658;2023-08-30T17:16:10;5.22;;;4.82;;
76731;SDS011;65656;51.130;13.658;2023-08-30T17:20:11;8.65;;;8.15;;
76731;SDS011;65656;51.130;13.658;2023-08-30T17:24:14;3.47;;;2.72;;
76731;SDS011;65656;51.130;13.658;2023-08-30T17:28:16;7.88;;;7.18;;
76731;SDS011;65656;51.130;13.658;2023-08-30T17:32:18;4.72;;;4.30;;
76731;SDS011;65656;51.130;13.658;2023-08-30T17:36:19;9.38;;;8.88;;
76731;SDS011;65656;51.130;13.658;2023-08-30T17:40:22;14.02;;;13.23;;
76731;SDS011;65656;51.130;13.658;2023-08-30T17:44:24;3.88;;;3.58;;
76731;SDS011;65656;51.130;13.658;2023-08-30T17:48:26;12.52;;;11.80;;
76731;SDS011;65656;51.130;13.658;2023-08-30T17:52:27;10.18;;;9.57;;
76731;SDS011;65656;51.130;13.658;2023-08-30T17:56:30;7.97;;;7.43;;
76731;SDS011;65656;51.130;13.658;2023-08-30T18:00:32;9.50;;;8.73;;
76731;SDS011;65656;51.130;13.658;2023-08-30T18:04:34;10.43;;;9.63;;
76731;SDS011;65656;51.130;13.658;2023-08-30T18:08:35;10.75;;;9.98;;
76731;SDS011;65656;51.130;13.658;2023-08-30T18:12:38;9.00;;;8.38;;
76731;SDS011;65656;51.130;13.658;2023-08-30T18:16:40;9.15;;;8.55;;
76731;SDS011;65656;51.130;13.658;2023-08-30T18:20:41;9.75;;;9.15;;
76731;SDS011;65656;51.130;13.658;2023-08-30T18:24:43;8.35;;;7.85;;
76731;SDS011;65656;51.130;13.658;2023-08-30T18:28:46;9.30;;;8.60;;
76731;SDS011;65656;51.130;13.658;2023-08-30T18:32:47;7.03;;;6.53;;
76731;SDS011;65656;51.130;13.658;2023-08-30T18:36:49;5.30;;;4.80;;
76731;SDS011;65656;51.130;13.658;2023-08-30T18:40:51;9.23;;;8.73;;
76731;SDS011;65656;51.130;13.658;2023-08-30T18:45:07;8.20;;;7.65;;
76731;SDS011;65656;51.130;13.658;2023-08-30T18:49:10;10.10;;;9.40;;
76731;SDS011;65656;51.130;13.658;2023-08-30T18:53:11;10.25;;;9.65;;
76731;SDS011;65656;51.130;13.658;2023-08-30T18:57:14;4.20;;;3.60;;
76731;SDS011;65656;51.130;13.658;2023-08-30T19:01:17;11.10;;;10.35;;
76731;SDS011;65656;51.130;13.658;2023-08-30T19:05:19;11.43;;;10.73;;
76731;SDS011;65656;51.130;13.658;2023-08-30T19:09:20;7.70;;;7.15;;
76731;SDS011;65656;51.130;13.658;2023-08-30T19:13:22;9.32;;;8.43;;
76731;SDS011;65656;51.130;13.658;2023-08-30T19:17:25;9.20;;;8.52;;
76731;SDS011;65656;51.130;13.658;2023-08-30T19:21:26;9.13;;;8.52;;
76731;SDS011;65656;51.130;13.658;2023-08-30T19:25:29;9.80;;;9.20;;
76731;SDS011;65656;51.130;13.658;2023-08-30T19:29:31;9.95;;;9.35;;
76731;SDS011;65656;51.130;13.658;2023-08-30T19:33:34;8.55;;;7.75;;
76731;SDS011;65656;51.130;13.658;2023-08-30T19:37:35;10.85;;;10.23;;
76731;SDS011;65656;51.130;13.658;2023-08-30T19:41:37;10.13;;;9.43;;
76731;SDS011;65656;51.130;13.658;2023-08-30T19:45:39;8.88;;;8.27;;
76731;SDS011;65656;51.130;13.658;2023-08-30T19:49:42;11.55;;;10.70;;
76731;SDS011;65656;51.130;13.658;2023-08-30T19:53:43;12.43;;;11.68;;
76731;SDS011;65656;51.130;13.658;2023-08-30T19:57:45;10.38;;;9.60;;
76731;SDS011;65656;51.130;13.658;2023-08-30T20:01:46;14.48;;;13.48;;
76731;SDS011;65656;51.130;13.658;2023-08-30T20:05:50;9.88;;;9.27;;
76731;SDS011;65656;51.130;13.658;2023-08-30T20:09:52;11.48;;;10.57;;
76731;SDS011;65656;51.130;13.658;2023-08-30T20:13:54;10.32;;;9.57;;
76731;SDS011;65656;51.130;13.658;2023-08-30T20:17:55;14.50;;;13.50;;
76731;SDS011;65656;51.130;13.658;2023-08-30T20:21:58;13.23;;;12.32;;
76731;SDS011;65656;51.130;13.658;2023-08-30T20:26:00;12.82;;;11.93;;
76731;SDS011;65656;51.130;13.658;2023-08-30T20:30:02;9.32;;;8.40;;
76731;SDS011;65656;51.130;13.658;2023-08-30T20:34:03;10.27;;;9.45;;
76731;SDS011;65656;51.130;13.658;2023-08-30T20:38:06;9.18;;;8.60;;
76731;SDS011;65656;51.130;13.658;2023-08-30T20:42:08;9.20;;;8.50;;
76731;SDS011;65656;51.130;13.658;2023-08-30T20:46:10;8.80;;;8.18;;
76731;SDS011;65656;51.130;13.658;2023-08-30T20:50:11;8.77;;;8.15;;
76731;SDS011;65656;51.130;13.658;2023-08-30T20:54:14;8.43;;;7.72;;
76731;SDS011;65656;51.130;13.658;2023-08-30T20:58:16;10.55;;;9.85;;
76731;SDS011;65656;51.130;13.658;2023-08-30T21:02:18;10.20;;;9.48;;
76731;SDS011;65656;51.130;13.658;2023-08-30T21:06:19;13.30;;;12.40;;
76731;SDS011;65656;51.130;13.658;2023-08-30T21:10:22;12.68;;;10.35;;
76731;SDS011;65656;51.130;13.658;2023-08-30T21:14:24;10.32;;;9.60;;
76731;SDS011;65656;51.130;13.658;2023-08-30T21:18:26;11.52;;;10.68;;
76731;SDS011;65656;51.130;13.658;2023-08-30T21:22:27;11.13;;;10.30;;
76731;SDS011;65656;51.130;13.658;2023-08-30T21:26:30;14.55;;;13.63;;
76731;SDS011;65656;51.130;13.658;2023-08-30T21:30:36;9.63;;;9.00;;
76731;SDS011;65656;51.130;13.658;2023-08-30T21:34:37;14.00;;;13.07;;
76731;SDS011;65656;51.130;13.658;2023-08-30T21:38:41;10.73;;;10.02;;
76731;SDS011;65656;51.130;13.658;2023-08-30T21:42:44;13.13;;;12.32;;
76731;SDS011;65656;51.130;13.658;2023-08-30T21:46:45;11.57;;;10.68;;
76731;SDS011;65656;51.130;13.658;2023-08-30T21:50:47;10.20;;;9.40;;
76731;SDS011;65656;51.130;13.658;2023-08-30T21:54:50;4.72;;;3.88;;
76731;SDS011;65656;51.130;13.658;2023-08-30T21:58:53;4.65;;;3.45;;
76731;SDS011;65656;51.130;13.658;2023-08-30T22:02:55;10.45;;;9.75;;
76731;SDS011;65656;51.130;13.658;2023-08-30T22:06:57;12.30;;;11.48;;
76731;SDS011;65656;51.130;13.658;2023-08-30T22:10:59;14.20;;;13.40;;
76731;SDS011;65656;51.130;13.658;2023-08-30T22:15:02;11.20;;;10.35;;
76731;SDS011;65656;51.130;13.658;2023-08-30T22:19:04;13.45;;;12.65;;
76731;SDS011;65656;51.130;13.658;2023-08-30T22:23:05;7.03;;;6.43;;
76731;SDS011;65656;51.130;13.658;2023-08-30T22:27:07;12.45;;;11.65;;
76731;SDS011;65656;51.130;13.658;2023-08-30T22:31:10;15.55;;;14.52;;
76731;SDS011;65656;51.130;13.658;2023-08-30T22:35:11;14.98;;;14.00;;
76731;SDS011;65656;51.130;13.658;2023-08-30T22:39:13;13.43;;;12.40;;
76731;SDS011;65656;51.130;13.658;2023-08-30T22:43:15;13.55;;;12.68;;
76731;SDS011;65656;51.130;13.658;2023-08-30T22:47:18;15.10;;;14.10;;
76731;SDS011;65656;51.130;13.658;2023-08-30T22:51:19;7.05;;;6.00;;
76731;SDS011;65656;51.130;13.658;2023-08-30T22:55:21;10.48;;;9.77;;
76731;SDS011;65656;51.130;13.658;2023-08-30T22:59:25;13.57;;;12.73;;
76731;SDS011;65656;51.130;13.658;2023-08-30T23:03:28;13.10;;;12.27;;
76731;SDS011;65656;51.130;13.658;2023-08-30T23:07:30;16.73;;;15.63;;
76731;SDS011;65656;51.130;13.658;2023-08-30T23:11:31;14.15;;;13.05;;
76731;SDS011;65656;51.130;13.658;2023-08-30T23:15:33;9.88;;;9.02;;
76731;SDS011;65656;51.130;13.658;2023-08-30T23:19:36;12.48;;;11.57;;
76731;SDS011;65656;51.130;13.658;2023-08-30T23:23:38;10.93;;;10.13;;
76731;SDS011;65656;51.130;13.658;2023-08-30T23:27:39;15.80;;;14.80;;
76731;SDS011;65656;51.130;13.658;2023-08-30T23:31:41;13.73;;;12.82;;
76731;SDS011;65656;51.130;13.658;2023-08-30T23:35:44;12.25;;;11.45;;
76731;SDS011;65656;51.130;13.658;2023-08-30T23:39:46;12.93;;;12.10;;
76731;SDS011;65656;51.130;13.658;2023-08-30T23:43:47;13.32;;;12.48;;